Tomb, Pennsylvania
Current Conditions -  °F | °C
As of 9:54 AM on Saturday 20 Dec 2014 (Local Time) from KIPT Reporting Station
Overcast Overcast  
Wind Chill: 32°   Ceiling: 2700
Heat Index: 32°   Visibility: 10mi
Dew Point: 20°   Wind: 3mph
Humidity: 61%   Direction: 310°NW
Pressure: 30.3"   Gusts: NA
Location:  41.1288°N, 77.1989°W
Report Text: KIPT 201454Z 31003KT 10SM OVC027 00/M07 A3030 RMK AO2 SLP267 T00001067 53016
Loading
Personal Weather Stations






























Interactive Weather Map New forecast layout! Learn more

10-Day Weather Forecast

Advertisements
Track Severe Weather on mobile